Time;durP1;ratioP1;P1;durP2;ratioP2;P2;SDS_P1;SDS_P2;PMS_P1;PMS_P2;Temp;Humidity;BMP_temperature;BMP_pressure;BME280_temperature;BME280_humidity;BME280_pressure;Samples;Min_cycle;Max_cycle;Signal;HPM_P1;HPM_P2
2020/12/24 00:00:35;;;;;;;3.17;1.63;;;;;;;-144.99;100.00;52525.56;5111201;28;20637;-73
2020/12/24 00:03:01;;;;;;;2.57;1.20;;;;;;;-144.99;100.00;52529.63;5115555;27;20981;-74
2020/12/24 00:05:27;;;;;;;2.70;1.13;;;;;;;-144.99;100.00;52517.41;5127928;27;20770;-74
2020/12/24 00:07:55;;;;;;;3.87;1.93;;;;;;;-144.99;100.00;52525.56;5114672;27;21198;-74
2020/12/24 00:10:21;;;;;;;2.73;1.57;;;;;;;-144.99;100.00;52560.19;5110906;27;20724;-73
2020/12/24 00:12:47;;;;;;;2.73;1.30;;;;;;;-144.99;100.00;52541.84;5120539;27;20683;-74
2020/12/24 00:15:13;;;;;;;3.87;2.13;;;;;;;-144.99;100.00;52515.34;5115172;27;20621;-73
2020/12/24 00:17:40;;;;;;;4.30;1.47;;;;;;;-144.99;100.00;52513.31;5125282;27;20735;-73
2020/12/24 00:20:06;;;;;;;1.20;0.83;;;;;;;-144.99;100.00;52521.47;5123095;27;20629;-72
2020/12/24 00:22:32;;;;;;;4.23;1.60;;;;;;;-144.99;100.00;52533.69;5116680;27;20760;-73
2020/12/24 00:25:00;;;;;;;3.43;1.33;;;;;;;-144.99;100.00;52566.31;5117485;27;20689;-74
2020/12/24 00:27:26;;;;;;;2.07;1.10;;;;;;;-144.99;100.00;52537.78;5119823;27;21341;-74
2020/12/24 00:29:52;;;;;;;2.83;1.27;;;;;;;-144.99;100.00;52556.13;5119968;27;20735;-73
2020/12/24 00:32:18;;;;;;;1.93;1.53;;;;;;;-144.99;100.00;52558.16;5112126;27;21323;-73
2020/12/24 00:34:45;;;;;;;3.00;0.93;;;;;;;-144.99;100.00;52529.63;5122332;27;21225;-74
2020/12/24 00:37:11;;;;;;;3.63;1.20;;;;;;;-144.99;100.00;52541.84;5115884;27;20727;-73
2020/12/24 00:39:37;;;;;;;2.47;1.40;;;;;;;-144.99;100.00;52499.06;5126167;27;20636;-74
2020/12/24 00:42:04;;;;;;;4.43;1.50;;;;;;;-144.99;100.00;52511.28;5111818;28;20688;-73
2020/12/24 00:44:30;;;;;;;2.20;1.00;;;;;;;-144.99;100.00;52517.41;5112633;27;20649;-73
2020/12/24 00:46:56;;;;;;;4.03;1.13;;;;;;;-144.99;100.00;52529.63;5115474;27;20638;-74
2020/12/24 00:49:22;;;;;;;0.80;0.50;;;;;;;-144.99;100.00;52541.84;5112427;28;20708;-73
2020/12/24 00:51:48;;;;;;;2.93;1.10;;;;;;;-144.99;100.00;52529.63;5124599;27;20676;-74
2020/12/24 00:54:14;;;;;;;3.10;1.23;;;;;;;-144.99;100.00;52537.78;5115918;27;20708;-74
2020/12/24 00:56:41;;;;;;;5.30;1.47;;;;;;;-144.99;100.00;52572.44;5115005;27;21174;-73
2020/12/24 00:59:08;;;;;;;8.43;1.50;;;;;;;-144.99;100.00;52505.16;5111457;28;20740;-73
2020/12/24 01:01:34;;;;;;;2.43;1.03;;;;;;;-144.99;100.00;52525.56;5116786;28;20664;-74
2020/12/24 01:04:00;;;;;;;3.50;1.87;;;;;;;-144.99;100.00;52521.47;5122303;27;20721;-74
2020/12/24 01:06:27;;;;;;;3.07;1.27;;;;;;;-144.99;100.00;52527.59;5116717;27;20743;-72
2020/12/24 01:08:53;;;;;;;2.27;1.20;;;;;;;-144.99;100.00;52525.56;5120763;28;20656;-72
2020/12/24 01:11:19;;;;;;;2.43;1.43;;;;;;;-144.99;100.00;52527.59;5116038;28;20720;-72
2020/12/24 01:13:45;;;;;;;0.70;0.67;;;;;;;-144.99;100.00;52556.13;5124113;27;20736;-71
2020/12/24 01:16:12;;;;;;;1.93;1.10;;;;;;;-144.99;100.00;52513.31;5111919;27;20625;-72
2020/12/24 01:18:38;;;;;;;1.30;0.60;;;;;;;-144.99;100.00;52531.66;5109628;28;21218;-71
2020/12/24 01:21:07;;;;;;;1.13;0.70;;;;;;;-144.99;100.00;52525.56;5110180;28;20696;-72
2020/12/24 01:23:33;;;;;;;2.07;0.90;;;;;;;-144.99;100.00;52554.09;5121097;28;20690;-73
2020/12/24 01:25:59;;;;;;;6.40;1.10;;;;;;;-144.99;100.00;52509.25;5109464;28;20673;-72
2020/12/24 01:28:25;;;;;;;2.93;2.37;;;;;;;-144.99;100.00;52513.31;5111623;28;20680;-73
2020/12/24 01:30:52;;;;;;;0.90;0.70;;;;;;;-144.99;100.00;52499.06;5109766;28;20657;-72
2020/12/24 01:33:19;;;;;;;1.77;0.73;;;;;;;-144.99;100.00;52513.31;5112632;28;20665;-71
2020/12/24 01:35:45;;;;;;;1.67;0.63;;;;;;;-144.99;100.00;52566.31;5118326;28;20693;-74
2020/12/24 01:38:12;;;;;;;1.53;0.60;;;;;;;-144.99;100.00;52541.84;5121615;28;20727;-73
2020/12/24 01:40:38;;;;;;;1.87;0.60;;;;;;;-144.99;100.00;52545.94;5121065;28;20620;-75
2020/12/24 01:43:04;;;;;;;3.57;0.60;;;;;;;-144.99;100.00;52476.63;5120476;28;20710;-72
2020/12/24 01:45:30;;;;;;;2.47;0.63;;;;;;;-144.99;100.00;52525.56;5112820;28;20756;-72
2020/12/24 01:47:56;;;;;;;2.03;0.80;;;;;;;-144.99;100.00;52570.38;5112345;28;20617;-75
2020/12/24 01:50:23;;;;;;;0.30;0.30;;;;;;;-144.99;100.00;52541.84;5111874;28;21039;-75
2020/12/24 01:52:50;;;;;;;0.60;0.60;;;;;;;-144.99;100.00;52521.47;5113043;28;20663;-73
2020/12/24 01:55:16;;;;;;;3.23;0.73;;;;;;;-144.99;100.00;52525.56;5112465;28;20629;-73
2020/12/24 01:57:43;;;;;;;2.03;0.50;;;;;;;-144.99;100.00;52533.69;5117535;28;20783;-75
2020/12/24 02:00:11;;;;;;;2.80;0.57;;;;;;;-144.99;100.00;52521.47;5126487;28;20717;-75
2020/12/24 02:02:37;;;;;;;1.03;0.60;;;;;;;-144.99;100.00;52541.84;5120243;28;20722;-73
2020/12/24 02:05:04;;;;;;;1.67;0.37;;;;;;;-144.99;100.00;52517.41;5122367;28;20680;-75
2020/12/24 02:07:32;;;;;;;1.97;0.80;;;;;;;-144.99;100.00;52515.34;5114281;28;20688;-74
2020/12/24 02:09:59;;;;;;;3.20;0.80;;;;;;;-144.99;100.00;52537.78;5120297;27;20734;-75
2020/12/24 02:12:25;;;;;;;1.13;0.67;;;;;;;-144.99;100.00;52574.47;5122418;27;20920;-74
2020/12/24 02:14:51;;;;;;;4.50;0.60;;;;;;;-144.99;100.00;52525.56;5124067;27;20661;-74
2020/12/24 02:17:17;;;;;;;2.03;0.93;;;;;;;-144.99;100.00;52568.34;5119635;27;21385;-74
2020/12/24 02:19:43;;;;;;;1.80;0.73;;;;;;;-144.99;100.00;52488.84;5119696;27;20634;-74
2020/12/24 02:22:11;;;;;;;1.53;0.70;;;;;;;-144.99;100.00;52511.28;5119627;27;20645;-73
2020/12/24 02:24:41;;;;;;;1.87;0.60;;;;;;;-144.99;100.00;52537.78;5122189;27;20653;-74
2020/12/24 02:27:07;;;;;;;3.07;1.10;;;;;;;-144.99;100.00;52541.84;5124805;27;20623;-72
2020/12/24 02:29:33;;;;;;;1.03;0.57;;;;;;;-144.99;100.00;52501.09;5132972;27;20762;-73
2020/12/24 02:31:59;;;;;;;1.40;0.50;;;;;;;-144.99;100.00;52533.69;5128564;27;21318;-75
2020/12/24 02:34:25;;;;;;;0.63;0.60;;;;;;;-144.99;100.00;52529.63;5112855;27;20686;-73
2020/12/24 02:36:51;;;;;;;0.60;0.33;;;;;;;-144.99;100.00;52537.78;5112891;28;20733;-72
2020/12/24 02:39:18;;;;;;;2.10;0.77;;;;;;;-144.99;100.00;52505.16;5120380;27;20671;-73
2020/12/24 02:41:45;;;;;;;1.33;0.90;;;;;;;-144.99;100.00;52537.78;5118675;27;20691;-71
2020/12/24 02:44:11;;;;;;;0.67;0.47;;;;;;;-144.99;100.00;52523.50;5111951;27;21064;-72
2020/12/24 02:46:39;;;;;;;1.73;0.73;;;;;;;-144.99;100.00;52525.56;5112661;28;20680;-72
2020/12/24 02:49:05;;;;;;;3.63;1.10;;;;;;;-144.99;100.00;52541.84;5113866;27;20756;-72
2020/12/24 02:51:31;;;;;;;2.03;0.83;;;;;;;-144.99;100.00;52574.47;5113228;27;20652;-71
2020/12/24 02:53:58;;;;;;;1.97;1.00;;;;;;;-144.99;100.00;52537.78;5113021;28;20708;-73
2020/12/24 02:56:24;;;;;;;1.93;1.07;;;;;;;-144.99;100.00;52552.03;5112664;28;20712;-74
2020/12/24 02:58:51;;;;;;;7.87;1.47;;;;;;;-144.99;100.00;52566.31;5123650;27;20632;-73
2020/12/24 03:01:17;;;;;;;2.57;0.60;;;;;;;-144.99;100.00;52509.25;5112516;28;20617;-73
2020/12/24 03:03:43;;;;;;;1.33;0.80;;;;;;;-144.99;100.00;52562.25;5113475;27;20668;-75
2020/12/24 03:06:09;;;;;;;0.73;0.67;;;;;;;-144.99;100.00;52519.44;5116318;27;20745;-74
2020/12/24 03:08:35;;;;;;;4.50;0.93;;;;;;;-144.99;100.00;52578.53;5112996;28;20656;-74
2020/12/24 03:11:01;;;;;;;1.40;1.10;;;;;;;-144.99;100.00;52505.16;5112878;27;20653;-72
2020/12/24 03:13:28;;;;;;;5.37;4.87;;;;;;;-144.99;100.00;52556.13;5120687;27;20640;-74
2020/12/24 03:15:54;;;;;;;1.97;0.43;;;;;;;-144.99;100.00;52537.78;5113880;27;20689;-73
2020/12/24 03:18:20;;;;;;;1.27;0.80;;;;;;;-144.99;100.00;52545.94;5119447;27;20837;-72
2020/12/24 03:20:46;;;;;;;1.73;1.07;;;;;;;-144.99;100.00;52541.84;5117449;27;20732;-73
2020/12/24 03:23:12;;;;;;;2.00;0.60;;;;;;;-144.99;100.00;52539.81;5120320;27;20691;-75
2020/12/24 03:25:39;;;;;;;1.47;0.73;;;;;;;-144.99;100.00;52517.41;5115630;27;20671;-73
2020/12/24 03:28:05;;;;;;;5.17;0.90;;;;;;;-144.99;100.00;52550.00;5118300;27;20727;-74
2020/12/24 03:30:32;;;;;;;1.67;0.97;;;;;;;-144.99;100.00;52541.84;5125020;27;20975;-72
2020/12/24 03:32:58;;;;;;;1.70;1.07;;;;;;;-144.99;100.00;52543.91;5122040;27;20676;-72
2020/12/24 03:35:24;;;;;;;1.63;0.70;;;;;;;-144.99;100.00;52521.47;5115967;27;21037;-72
2020/12/24 03:37:50;;;;;;;5.17;0.97;;;;;;;-144.99;100.00;52533.69;5123704;27;20816;-73
2020/12/24 03:40:16;;;;;;;2.73;1.67;;;;;;;-144.99;100.00;52541.84;5124259;27;20770;-73
2020/12/24 03:42:42;;;;;;;1.07;0.90;;;;;;;-144.99;100.00;52509.25;5116632;27;20759;-73
2020/12/24 03:45:09;;;;;;;1.30;0.90;;;;;;;-144.99;100.00;52554.09;5118561;27;20649;-74
2020/12/24 03:47:36;;;;;;;1.90;0.80;;;;;;;-144.99;100.00;52525.56;5116694;27;20639;-73
2020/12/24 03:50:03;;;;;;;3.07;1.23;;;;;;;-144.99;100.00;52545.94;5116189;27;20624;-75
2020/12/24 03:52:29;;;;;;;2.80;0.87;;;;;;;-144.99;100.00;52537.78;5111946;28;20686;-73
2020/12/24 03:54:55;;;;;;;4.33;0.97;;;;;;;-144.99;100.00;52566.31;5112389;28;20713;-74
2020/12/24 03:57:22;;;;;;;2.20;1.00;;;;;;;-144.99;100.00;52521.47;5111959;27;20657;-73
2020/12/24 03:59:48;;;;;;;0.93;0.70;;;;;;;-144.99;100.00;52560.19;5111613;28;20667;-74
2020/12/24 04:02:14;;;;;;;1.57;0.87;;;;;;;-144.99;100.00;52543.91;5111520;27;20780;-74
2020/12/24 04:04:42;;;;;;;1.27;0.53;;;;;;;-144.99;100.00;52513.31;5118141;27;20640;-74
2020/12/24 04:07:08;;;;;;;0.87;0.70;;;;;;;-144.99;100.00;52511.28;5114982;27;20636;-74
2020/12/24 04:09:34;;;;;;;0.40;0.30;;;;;;;-144.99;100.00;52517.41;5113259;27;20657;-73
2020/12/24 04:12:00;;;;;;;0.80;0.50;;;;;;;-144.99;100.00;52562.25;5115491;27;20695;-73
2020/12/24 04:14:26;;;;;;;1.40;0.90;;;;;;;-144.99;100.00;52541.84;5113291;27;21004;-73
2020/12/24 04:16:52;;;;;;;0.80;0.70;;;;;;;-144.99;100.00;52547.97;5112641;28;20706;-73
2020/12/24 04:19:18;;;;;;;0.93;0.63;;;;;;;-144.99;100.00;52550.00;5125766;27;20668;-74
2020/12/24 04:21:45;;;;;;;0.87;0.50;;;;;;;-144.99;100.00;52562.25;5124532;27;20729;-75
2020/12/24 04:24:12;;;;;;;1.60;0.77;;;;;;;-144.99;100.00;52517.41;5114917;27;20716;-75
2020/12/24 04:26:38;;;;;;;0.60;0.40;;;;;;;-144.99;100.00;52554.09;5112913;28;20748;-72
2020/12/24 04:29:04;;;;;;;0.73;0.73;;;;;;;-144.99;100.00;52517.41;5121037;27;20640;-71
2020/12/24 04:31:30;;;;;;;2.00;0.57;;;;;;;-144.99;100.00;52566.31;5112937;28;20636;-74
2020/12/24 04:33:56;;;;;;;0.70;0.70;;;;;;;-144.99;100.00;52543.91;5119482;27;20731;-71
2020/12/24 04:36:22;;;;;;;0.30;0.30;;;;;;;-144.99;100.00;52552.03;5112558;28;20658;-73
2020/12/24 04:38:49;;;;;;;2.10;0.73;;;;;;;-144.99;100.00;52554.09;5123062;27;20735;-75
2020/12/24 04:41:16;;;;;;;0.67;0.33;;;;;;;-144.99;100.00;52531.66;5116254;27;20637;-74
2020/12/24 04:43:43;;;;;;;0.87;0.50;;;;;;;-144.99;100.00;52529.63;5118177;27;20663;-74
2020/12/24 04:46:12;;;;;;;0.50;0.50;;;;;;;-144.99;100.00;52537.78;5109856;28;21669;-74
2020/12/24 04:48:40;;;;;;;0.97;0.63;;;;;;;-144.99;100.00;52533.69;5122482;27;21022;-74
2020/12/24 04:51:09;;;;;;;2.37;0.77;;;;;;;-144.99;100.00;52550.00;5110220;28;20685;-75
2020/12/24 04:53:37;;;;;;;0.53;0.53;;;;;;;-144.99;100.00;52562.25;5110134;27;20713;-74
2020/12/24 04:56:04;;;;;;;0.80;0.70;;;;;;;-144.99;100.00;52519.44;5110228;28;20661;-73
2020/12/24 04:58:30;;;;;;;1.47;0.70;;;;;;;-144.99;100.00;52501.09;5112991;27;20649;-76
2020/12/24 05:00:57;;;;;;;0.93;0.70;;;;;;;-144.99;100.00;52541.84;5110576;28;20644;-72
2020/12/24 05:03:23;;;;;;;3.27;1.00;;;;;;;-144.99;100.00;52558.16;5111743;27;20721;-73
2020/12/24 05:05:52;;;;;;;5.57;0.90;;;;;;;-144.99;100.00;52525.56;5115853;27;21363;-73
2020/12/24 05:08:18;;;;;;;1.50;0.90;;;;;;;-144.99;100.00;52552.03;5109838;28;21182;-74
2020/12/24 05:11:04;;;;;;;1.70;0.87;;;;;;;-144.99;100.00;52541.84;5109458;28;20660;-75
2020/12/24 05:13:31;;;;;;;1.63;0.80;;;;;;;-144.99;100.00;52562.25;5115161;28;21251;-74
2020/12/24 05:15:57;;;;;;;0.50;0.50;;;;;;;-144.99;100.00;52513.31;5111917;28;21177;-76
2020/12/24 05:18:23;;;;;;;1.03;0.60;;;;;;;-144.99;100.00;52525.56;5114894;28;20731;-74
2020/12/24 05:20:50;;;;;;;0.83;0.60;;;;;;;-144.99;100.00;52550.00;5112043;28;20629;-74
2020/12/24 05:23:18;;;;;;;0.90;0.47;;;;;;;-144.99;100.00;52541.84;5110794;28;20691;-75
2020/12/24 05:25:45;;;;;;;1.03;0.90;;;;;;;-144.99;100.00;52521.47;5113201;28;20688;-74
2020/12/24 05:28:20;;;;;;;1.17;0.90;;;;;;;-144.99;100.00;52521.47;5119644;28;20628;-77
2020/12/24 05:30:47;;;;;;;1.37;0.77;;;;;;;-144.99;100.00;52554.09;5113658;28;20684;-74
2020/12/24 05:33:26;;;;;;;1.17;0.73;;;;;;;-144.99;100.00;52545.94;5119371;28;20995;-73
2020/12/24 05:35:52;;;;;;;1.80;0.70;;;;;;;-144.99;100.00;52529.63;5109757;28;20613;-74
2020/12/24 05:38:31;;;;;;;0.87;0.70;;;;;;;-144.99;100.00;52566.31;5115035;28;21107;-73
2020/12/24 05:40:57;;;;;;;1.23;0.50;;;;;;;-144.99;100.00;52570.38;5118541;27;21244;-74
2020/12/24 05:43:23;;;;;;;0.50;0.50;;;;;;;-144.99;100.00;52541.84;5120691;27;20796;-73
2020/12/24 05:46:03;;;;;;;0.57;0.50;;;;;;;-144.99;100.00;52550.00;5113944;28;20760;-74
2020/12/24 05:48:33;;;;;;;2.13;0.70;;;;;;;-144.99;100.00;52541.84;5113619;27;20935;-74
2020/12/24 05:50:59;;;;;;;0.70;0.57;;;;;;;-144.99;100.00;52525.56;5113800;28;20625;-74
2020/12/24 05:53:25;;;;;;;0.70;0.50;;;;;;;-144.99;100.00;52566.31;5117465;27;20746;-74
2020/12/24 05:55:51;;;;;;;1.27;0.40;;;;;;;-144.99;100.00;52521.47;5122607;27;20705;-74
2020/12/24 05:58:18;;;;;;;0.73;0.43;;;;;;;-144.99;100.00;52533.69;5115722;27;20649;-75
2020/12/24 06:00:45;;;;;;;0.60;0.30;;;;;;;-144.99;100.00;52566.31;5114255;28;20652;-73
2020/12/24 06:03:16;;;;;;;0.60;0.60;;;;;;;-144.99;100.00;52525.56;5116421;27;20971;-73
2020/12/24 06:05:57;;;;;;;0.80;0.50;;;;;;;-144.99;100.00;52525.56;5131636;27;20792;-74
2020/12/24 06:08:26;;;;;;;1.30;0.60;;;;;;;-144.99;100.00;52560.19;5126164;27;20660;-75
2020/12/24 06:11:06;;;;;;;2.80;0.73;;;;;;;-144.99;100.00;52550.00;5112683;28;20628;-74
2020/12/24 06:13:38;;;;;;;0.57;0.53;;;;;;;-144.99;100.00;52545.94;5118025;27;20759;-74
2020/12/24 06:16:05;;;;;;;1.60;0.50;;;;;;;-144.99;100.00;52552.03;5112733;28;20619;-74
2020/12/24 06:18:37;;;;;;;0.47;0.47;;;;;;;-144.99;100.00;52558.16;5112808;27;20724;-73
2020/12/24 06:21:12;;;;;;;2.47;0.60;;;;;;;-144.99;100.00;52550.00;5112399;28;20621;-74
2020/12/24 06:23:42;;;;;;;1.37;0.87;;;;;;;-144.99;100.00;52582.63;5124499;27;20726;-74
2020/12/24 06:26:12;;;;;;;1.30;1.00;;;;;;;-144.99;100.00;52550.00;5114597;28;20761;-73
2020/12/24 06:28:40;;;;;;;0.73;0.70;;;;;;;-144.99;100.00;52533.69;5120493;27;21173;-75
2020/12/24 06:31:08;;;;;;;1.53;1.07;;;;;;;-144.99;100.00;52566.31;5117919;28;21178;-74
2020/12/24 06:33:35;;;;;;;1.60;1.40;;;;;;;-144.99;100.00;52529.63;5121497;27;20663;-74
2020/12/24 06:36:01;;;;;;;3.20;0.90;;;;;;;-144.99;100.00;52545.94;5116229;28;20671;-74
2020/12/24 06:38:46;;;;;;;2.17;1.47;;;;;;;-144.99;100.00;52574.47;5129641;27;20648;-74
2020/12/24 06:41:22;;;;;;;3.33;1.30;;;;;;;-144.99;100.00;52537.78;5123093;27;20601;-75
2020/12/24 06:43:49;;;;;;;2.53;1.53;;;;;;;-144.99;100.00;52578.53;5124820;27;20636;-74
2020/12/24 06:46:15;;;;;;;1.37;1.07;;;;;;;-144.99;100.00;52539.81;5115567;28;20653;-74
2020/12/24 06:48:57;;;;;;;2.37;1.23;;;;;;;-144.99;100.00;52558.16;5115846;28;20661;-76
2020/12/24 06:51:23;;;;;;;3.23;1.00;;;;;;;-144.99;100.00;52545.94;5122925;27;20785;-76
2020/12/24 06:53:49;;;;;;;2.60;1.37;;;;;;;-144.99;100.00;52541.84;5120703;27;20637;-75
2020/12/24 06:56:20;;;;;;;2.93;1.37;;;;;;;-144.99;100.00;52529.63;5113872;28;20645;-74
2020/12/24 06:58:49;;;;;;;4.03;2.63;;;;;;;-144.99;100.00;52541.84;5122876;27;20638;-75
2020/12/24 07:01:17;;;;;;;3.00;1.80;;;;;;;-144.99;100.00;52554.09;5118476;27;21088;-74
2020/12/24 07:03:44;;;;;;;2.27;1.80;;;;;;;-144.99;100.00;52582.63;5125174;27;21158;-73
2020/12/24 07:06:10;;;;;;;3.87;1.40;;;;;;;-144.99;100.00;52521.47;5117474;27;21048;-74
2020/12/24 07:08:48;;;;;;;2.30;1.33;;;;;;;-144.99;100.00;52501.09;5114212;27;20661;-73
2020/12/24 07:11:41;;;;;;;6.07;1.67;;;;;;;-144.99;100.00;52545.94;5112300;28;21165;-75
2020/12/24 07:14:23;;;;;;;2.30;1.50;;;;;;;-144.99;100.00;52503.13;5110880;28;20637;-73
2020/12/24 07:16:50;;;;;;;4.60;1.57;;;;;;;-144.99;100.00;52550.00;5111455;27;21288;-72
2020/12/24 07:19:17;;;;;;;2.57;1.63;;;;;;;-144.99;100.00;52523.50;5115315;27;20719;-72
2020/12/24 07:21:48;;;;;;;2.73;1.57;;;;;;;-144.99;100.00;52537.78;5120930;27;20743;-73
2020/12/24 07:24:26;;;;;;;2.30;1.37;;;;;;;-144.99;100.00;52511.28;5111311;28;21246;-74
2020/12/24 07:26:55;;;;;;;1.90;1.20;;;;;;;-144.99;100.00;52566.31;5112823;27;20763;-73
2020/12/24 07:29:23;;;;;;;1.93;1.20;;;;;;;-144.99;100.00;52537.78;5111432;28;20629;-74
2020/12/24 07:31:50;;;;;;;2.93;2.07;;;;;;;-144.99;100.00;52537.78;5111776;27;20756;-73
2020/12/24 07:34:21;;;;;;;2.20;1.40;;;;;;;-144.99;100.00;52550.00;5122273;27;21084;-74
2020/12/24 07:36:48;;;;;;;6.60;1.43;;;;;;;-144.99;100.00;52556.13;5111064;28;21174;-73
2020/12/24 07:39:14;;;;;;;4.20;1.00;;;;;;;-144.99;100.00;52539.81;5123495;27;20648;-74
2020/12/24 07:41:40;;;;;;;1.60;1.40;;;;;;;-144.99;100.00;52517.41;5117414;27;20740;-73
2020/12/24 07:44:09;;;;;;;2.60;1.03;;;;;;;-144.99;100.00;52562.25;5119901;27;20621;-74
2020/12/24 07:46:35;;;;;;;2.83;1.73;;;;;;;-144.99;100.00;52558.16;5111533;27;20664;-75
2020/12/24 07:49:02;;;;;;;1.77;1.00;;;;;;;-144.99;100.00;52505.16;5110737;28;20731;-73
2020/12/24 07:51:30;;;;;;;3.47;1.70;;;;;;;-144.99;100.00;52564.28;5112283;27;20677;-74
2020/12/24 07:54:05;;;;;;;4.77;1.83;;;;;;;-144.99;100.00;52525.56;5117633;27;20625;-75
2020/12/24 07:56:32;;;;;;;4.80;2.83;;;;;;;-144.99;100.00;52545.94;5112393;28;20969;-74
2020/12/24 07:59:01;;;;;;;5.97;2.27;;;;;;;-144.99;100.00;52558.16;5116459;27;20732;-73
2020/12/24 08:01:27;;;;;;;2.23;1.20;;;;;;;-144.99;100.00;52574.47;5112258;28;20628;-72
2020/12/24 08:03:57;;;;;;;2.40;1.63;;;;;;;-144.99;100.00;52521.47;5119976;27;20696;-72
2020/12/24 08:06:23;;;;;;;3.90;1.00;;;;;;;-144.99;100.00;52529.63;5115563;27;20763;-75
2020/12/24 08:08:50;;;;;;;2.30;2.03;;;;;;;-144.99;100.00;52552.03;5117706;27;20628;-74
2020/12/24 08:11:16;;;;;;;1.63;0.97;;;;;;;-144.99;100.00;52525.56;5118163;27;21393;-76
2020/12/24 08:13:42;;;;;;;3.63;1.33;;;;;;;-144.99;100.00;52533.69;5126912;27;20656;-75
2020/12/24 08:16:11;;;;;;;4.93;3.27;;;;;;;-144.99;100.00;52537.78;5122368;27;21193;-74
2020/12/24 08:18:44;;;;;;;6.27;1.93;;;;;;;-144.99;100.00;52545.94;5123362;27;21150;-75
2020/12/24 08:21:18;;;;;;;5.47;2.10;;;;;;;-144.99;100.00;52529.63;5116375;27;20646;-74
2020/12/24 08:23:48;;;;;;;2.80;1.97;;;;;;;-144.99;100.00;52525.56;5127979;27;20735;-76
2020/12/24 08:26:17;;;;;;;7.33;3.50;;;;;;;-144.99;100.00;52468.47;5118682;27;20640;-74
2020/12/24 08:28:51;;;;;;;5.57;2.80;;;;;;;-144.99;100.00;52521.47;5130781;27;21023;-75
2020/12/24 08:31:18;;;;;;;4.83;2.73;;;;;;;-144.99;100.00;52525.56;5118021;27;21065;-75
2020/12/24 08:33:49;;;;;;;3.80;2.40;;;;;;;-144.99;100.00;52541.84;5113963;28;21390;-75
2020/12/24 08:36:18;;;;;;;8.30;3.17;;;;;;;-144.99;100.00;52505.16;5113875;27;20979;-74
2020/12/24 08:38:44;;;;;;;5.27;3.43;;;;;;;-144.99;100.00;52550.00;5124608;27;20672;-75
2020/12/24 08:41:20;;;;;;;6.23;3.93;;;;;;;-144.99;100.00;52541.84;5118607;27;20231;-75
2020/12/24 08:43:51;;;;;;;5.37;3.27;;;;;;;-144.99;100.00;52507.19;5114442;27;20672;-75
2020/12/24 08:46:17;;;;;;;4.57;2.97;;;;;;;-144.99;100.00;52517.41;5112463;28;21129;-73
2020/12/24 08:48:43;;;;;;;7.03;3.53;;;;;;;-144.99;100.00;52519.44;5128643;27;20715;-75
2020/12/24 08:51:13;;;;;;;5.77;4.37;;;;;;;-144.99;100.00;52543.91;5129939;27;21054;-73
2020/12/24 08:53:39;;;;;;;8.23;3.90;;;;;;;-144.99;100.00;52517.41;5111090;28;21212;-73
2020/12/24 08:56:11;;;;;;;5.13;3.20;;;;;;;-144.99;100.00;52566.31;5118871;27;20746;-73
2020/12/24 08:58:50;;;;;;;6.93;3.40;;;;;;;-144.99;100.00;52497.00;5109836;28;21189;-73
2020/12/24 09:01:16;;;;;;;7.83;4.37;;;;;;;-144.99;100.00;52484.78;5118666;27;20742;-73
2020/12/24 09:03:43;;;;;;;7.23;4.50;;;;;;;-144.99;100.00;52525.56;5113396;27;20732;-73
2020/12/24 09:06:11;;;;;;;7.30;5.67;;;;;;;-144.99;100.00;52541.84;5113882;27;20657;-73
2020/12/24 09:08:38;;;;;;;6.03;4.27;;;;;;;-144.99;100.00;52529.63;5119776;27;20704;-71
2020/12/24 09:11:04;;;;;;;6.13;3.87;;;;;;;-144.99;100.00;52539.81;5119781;27;20697;-73
2020/12/24 09:13:30;;;;;;;12.37;6.33;;;;;;;-144.99;100.00;52521.47;5128485;28;21084;-73
2020/12/24 09:15:57;;;;;;;6.90;4.03;;;;;;;-144.99;100.00;52505.16;5116426;28;20868;-74
2020/12/24 09:18:23;;;;;;;9.27;4.47;;;;;;;-144.99;100.00;52529.63;5112385;28;20630;-72
2020/12/24 09:20:50;;;;;;;12.07;5.00;;;;;;;-144.99;100.00;52515.34;5117557;28;20709;-73
2020/12/24 09:23:16;;;;;;;8.47;4.57;;;;;;;-144.99;100.00;52529.63;5120130;27;20677;-73
2020/12/24 09:25:44;;;;;;;7.97;4.07;;;;;;;-144.99;100.00;52490.91;5127909;28;20747;-72
2020/12/24 09:28:21;;;;;;;6.23;4.17;;;;;;;-144.99;100.00;52501.09;5109691;27;20629;-71
2020/12/24 09:30:48;;;;;;;5.90;3.37;;;;;;;-144.99;100.00;52529.63;5109376;28;20716;-73
2020/12/24 09:33:15;;;;;;;7.43;4.50;;;;;;;-144.99;100.00;52529.63;5117467;28;20684;-74
2020/12/24 09:35:41;;;;;;;8.80;4.67;;;;;;;-144.99;100.00;52545.94;5109411;28;21092;-73
2020/12/24 09:38:07;;;;;;;9.93;5.00;;;;;;;-144.99;100.00;52519.44;5113806;28;20617;-75
2020/12/24 09:40:34;;;;;;;6.97;4.40;;;;;;;-144.99;100.00;52529.63;5125338;28;20739;-75
2020/12/24 09:43:00;;;;;;;10.37;4.80;;;;;;;-144.99;100.00;52568.34;5117975;28;20681;-73
2020/12/24 09:45:28;;;;;;;9.00;5.07;;;;;;;-144.99;100.00;52558.16;5110951;28;21047;-74
2020/12/24 09:47:54;;;;;;;8.30;5.47;;;;;;;-144.99;100.00;52533.69;5109778;28;20617;-74
2020/12/24 09:50:22;;;;;;;10.20;7.17;;;;;;;-144.99;100.00;52521.47;5123141;28;21054;-74
2020/12/24 09:52:48;;;;;;;14.30;8.87;;;;;;;-144.99;100.00;52484.78;5109437;28;21241;-72
2020/12/24 09:55:15;;;;;;;14.80;11.07;;;;;;;-144.99;100.00;52525.56;5109885;28;20628;-75
2020/12/24 09:57:41;;;;;;;11.27;8.33;;;;;;;-144.99;100.00;52499.06;5111023;28;20665;-73
2020/12/24 10:00:08;;;;;;;13.63;7.77;;;;;;;-144.99;100.00;52501.09;5113209;28;20704;-72
2020/12/24 10:02:35;;;;;;;19.63;9.03;;;;;;;-144.99;100.00;52509.25;5120759;28;20661;-73
2020/12/24 10:05:01;;;;;;;13.63;9.27;;;;;;;-144.99;100.00;52554.09;5122220;28;20719;-73
2020/12/24 10:07:28;;;;;;;16.40;8.50;;;;;;;-144.99;100.00;52539.81;5120369;27;20667;-72
2020/12/24 10:09:55;;;;;;;15.67;9.50;;;;;;;-144.99;100.00;52484.78;5109104;28;20849;-73
2020/12/24 10:12:21;;;;;;;10.53;7.10;;;;;;;-144.99;100.00;52523.50;5109642;28;20653;-72
2020/12/24 10:14:47;;;;;;;11.20;8.50;;;;;;;-144.99;100.00;52480.72;5109009;28;21259;-72
2020/12/24 10:17:14;;;;;;;12.60;8.53;;;;;;;-144.99;100.00;52525.56;5122993;28;20657;-73
2020/12/24 10:19:43;;;;;;;13.60;10.87;;;;;;;-144.99;100.00;52531.66;5108901;28;20625;-73
2020/12/24 10:22:09;;;;;;;14.00;8.97;;;;;;;-144.99;100.00;52537.78;5109278;28;20740;-73
2020/12/24 10:24:38;;;;;;;12.93;9.37;;;;;;;-144.99;100.00;52492.94;5109356;28;21033;-72
2020/12/24 10:27:04;;;;;;;20.20;13.33;;;;;;;-144.99;100.00;52533.69;5109760;28;20652;-73
2020/12/24 10:29:30;;;;;;;16.80;9.33;;;;;;;-144.99;100.00;52525.56;5112808;28;20655;-73
2020/12/24 10:31:57;;;;;;;17.07;11.17;;;;;;;-144.99;100.00;52517.41;5113226;28;20698;-72
2020/12/24 10:34:23;;;;;;;16.83;9.93;;;;;;;-144.99;100.00;52523.50;5112259;28;20729;-71
2020/12/24 10:36:49;;;;;;;17.53;13.07;;;;;;;-144.99;100.00;52517.41;5112325;28;20720;-73
2020/12/24 10:39:16;;;;;;;15.13;10.43;;;;;;;-144.99;100.00;52527.59;5116077;27;20733;-73
2020/12/24 10:41:47;;;;;;;16.30;11.50;;;;;;;-144.99;100.00;52507.19;5121822;27;20721;-72
2020/12/24 10:44:14;;;;;;;15.53;11.23;;;;;;;-144.99;100.00;52492.94;5112247;28;20660;-72
2020/12/24 10:46:40;;;;;;;17.17;11.43;;;;;;;-144.99;100.00;52492.94;5112950;28;20656;-72
2020/12/24 10:49:06;;;;;;;18.13;12.83;;;;;;;-144.99;100.00;52501.09;5113002;28;20617;-75
2020/12/24 10:51:32;;;;;;;17.47;11.70;;;;;;;-144.99;100.00;52511.28;5112656;28;20644;-73
2020/12/24 10:53:58;;;;;;;28.73;18.50;;;;;;;-144.99;100.00;52484.78;5114973;28;21031;-73
2020/12/24 10:56:25;;;;;;;17.80;12.73;;;;;;;-144.99;100.00;52521.47;5112293;28;20632;-72
2020/12/24 10:58:52;;;;;;;17.30;13.27;;;;;;;-144.99;100.00;52521.47;5111695;28;20637;-72
2020/12/24 11:01:19;;;;;;;29.00;14.80;;;;;;;-144.99;100.00;52505.16;5112407;28;20629;-76
2020/12/24 11:03:47;;;;;;;17.37;11.87;;;;;;;-144.99;100.00;52492.94;5114243;27;20552;-72
2020/12/24 11:06:18;;;;;;;18.40;11.80;;;;;;;-144.99;100.00;52484.78;5129922;27;20650;-72
2020/12/24 11:08:44;;;;;;;22.77;13.80;;;;;;;-144.99;100.00;52480.72;5116111;27;20740;-73